sensor_id;sensor_type;location;lat;lon;timestamp;P1;durP1;ratioP1;P2;durP2;ratioP2
39788;SDS011;25478;42.626;23.320;2023-03-01T00:01:45;11.93;;;6.50;;
39788;SDS011;25478;42.626;23.320;2023-03-01T00:04:11;11.27;;;6.50;;
39788;SDS011;25478;42.626;23.320;2023-03-01T00:06:36;12.40;;;7.10;;
39788;SDS011;25478;42.626;23.320;2023-03-01T00:09:02;11.43;;;6.50;;
39788;SDS011;25478;42.626;23.320;2023-03-01T00:11:29;10.00;;;5.83;;
39788;SDS011;25478;42.626;23.320;2023-03-01T00:13:57;10.93;;;6.67;;
39788;SDS011;25478;42.626;23.320;2023-03-01T00:16:31;11.43;;;7.00;;
39788;SDS011;25478;42.626;23.320;2023-03-01T00:18:59;12.70;;;7.40;;
39788;SDS011;25478;42.626;23.320;2023-03-01T00:21:25;15.37;;;8.00;;
39788;SDS011;25478;42.626;23.320;2023-03-01T00:23:51;14.77;;;8.63;;
39788;SDS011;25478;42.626;23.320;2023-03-01T00:26:18;14.50;;;9.13;;
39788;SDS011;25478;42.626;23.320;2023-03-01T00:28:45;15.30;;;9.80;;
39788;SDS011;25478;42.626;23.320;2023-03-01T00:31:12;17.53;;;11.27;;
39788;SDS011;25478;42.626;23.320;2023-03-01T00:33:40;18.70;;;11.50;;
39788;SDS011;25478;42.626;23.320;2023-03-01T00:36:06;19.27;;;11.83;;
39788;SDS011;25478;42.626;23.320;2023-03-01T00:38:36;20.00;;;12.90;;
39788;SDS011;25478;42.626;23.320;2023-03-01T00:41:03;21.30;;;13.27;;
39788;SDS011;25478;42.626;23.320;2023-03-01T00:43:42;17.80;;;12.07;;
39788;SDS011;25478;42.626;23.320;2023-03-01T00:46:10;18.77;;;11.63;;
39788;SDS011;25478;42.626;23.320;2023-03-01T00:48:37;18.57;;;11.37;;
39788;SDS011;25478;42.626;23.320;2023-03-01T00:51:14;18.37;;;11.37;;
39788;SDS011;25478;42.626;23.320;2023-03-01T00:53:44;16.10;;;10.53;;
39788;SDS011;25478;42.626;23.320;2023-03-01T00:56:11;14.60;;;9.87;;
39788;SDS011;25478;42.626;23.320;2023-03-01T00:58:38;10.43;;;6.77;;
39788;SDS011;25478;42.626;23.320;2023-03-01T01:01:07;9.67;;;6.30;;
39788;SDS011;25478;42.626;23.320;2023-03-01T01:03:44;6.07;;;3.97;;
39788;SDS011;25478;42.626;23.320;2023-03-01T01:06:18;4.50;;;2.70;;
39788;SDS011;25478;42.626;23.320;2023-03-01T01:08:46;3.40;;;2.40;;
39788;SDS011;25478;42.626;23.320;2023-03-01T01:11:12;3.60;;;2.30;;
39788;SDS011;25478;42.626;23.320;2023-03-01T01:13:38;3.00;;;2.20;;
39788;SDS011;25478;42.626;23.320;2023-03-01T01:16:06;3.03;;;2.00;;
39788;SDS011;25478;42.626;23.320;2023-03-01T01:18:32;3.20;;;2.20;;
39788;SDS011;25478;42.626;23.320;2023-03-01T01:21:02;3.80;;;1.90;;
39788;SDS011;25478;42.626;23.320;2023-03-01T01:23:32;2.53;;;1.88;;
39788;SDS011;25478;42.626;23.320;2023-03-01T01:26:02;2.93;;;1.80;;
39788;SDS011;25478;42.626;23.320;2023-03-01T01:28:29;3.90;;;2.10;;
39788;SDS011;25478;42.626;23.320;2023-03-01T01:30:55;4.20;;;2.60;;
39788;SDS011;25478;42.626;23.320;2023-03-01T01:33:20;5.93;;;3.53;;
39788;SDS011;25478;42.626;23.320;2023-03-01T01:35:46;6.80;;;4.20;;
39788;SDS011;25478;42.626;23.320;2023-03-01T01:38:11;7.70;;;4.77;;
39788;SDS011;25478;42.626;23.320;2023-03-01T01:40:42;7.30;;;5.27;;
39788;SDS011;25478;42.626;23.320;2023-03-01T01:43:21;7.47;;;5.13;;
39788;SDS011;25478;42.626;23.320;2023-03-01T01:45:54;6.83;;;4.30;;
39788;SDS011;25478;42.626;23.320;2023-03-01T01:48:23;6.67;;;4.90;;
39788;SDS011;25478;42.626;23.320;2023-03-01T01:51:05;6.90;;;4.20;;
39788;SDS011;25478;42.626;23.320;2023-03-01T01:53:36;6.53;;;4.33;;
39788;SDS011;25478;42.626;23.320;2023-03-01T01:56:03;7.73;;;4.23;;
39788;SDS011;25478;42.626;23.320;2023-03-01T01:58:34;5.93;;;4.20;;
39788;SDS011;25478;42.626;23.320;2023-03-01T02:01:00;5.67;;;3.80;;
39788;SDS011;25478;42.626;23.320;2023-03-01T02:03:29;5.80;;;3.60;;
39788;SDS011;25478;42.626;23.320;2023-03-01T02:08:47;5.13;;;3.60;;
39788;SDS011;25478;42.626;23.320;2023-03-01T02:11:15;5.57;;;3.80;;
39788;SDS011;25478;42.626;23.320;2023-03-01T02:13:42;5.10;;;3.77;;
39788;SDS011;25478;42.626;23.320;2023-03-01T02:16:09;5.27;;;3.87;;
39788;SDS011;25478;42.626;23.320;2023-03-01T02:18:40;6.20;;;4.00;;
39788;SDS011;25478;42.626;23.320;2023-03-01T02:23:41;5.53;;;3.90;;
39788;SDS011;25478;42.626;23.320;2023-03-01T02:26:20;5.43;;;3.83;;
39788;SDS011;25478;42.626;23.320;2023-03-01T02:29:07;6.17;;;3.73;;
39788;SDS011;25478;42.626;23.320;2023-03-01T02:31:33;6.53;;;4.20;;
39788;SDS011;25478;42.626;23.320;2023-03-01T02:34:14;7.30;;;4.10;;
39788;SDS011;25478;42.626;23.320;2023-03-01T02:36:47;5.87;;;4.07;;
39788;SDS011;25478;42.626;23.320;2023-03-01T02:39:16;5.70;;;4.10;;
39788;SDS011;25478;42.626;23.320;2023-03-01T02:41:48;5.80;;;4.00;;
39788;SDS011;25478;42.626;23.320;2023-03-01T02:44:17;5.90;;;4.13;;
39788;SDS011;25478;42.626;23.320;2023-03-01T02:46:44;6.23;;;4.27;;
39788;SDS011;25478;42.626;23.320;2023-03-01T02:49:19;6.10;;;4.47;;
39788;SDS011;25478;42.626;23.320;2023-03-01T02:51:48;6.63;;;4.57;;
39788;SDS011;25478;42.626;23.320;2023-03-01T02:57:26;6.53;;;4.60;;
39788;SDS011;25478;42.626;23.320;2023-03-01T02:59:54;6.10;;;4.30;;
39788;SDS011;25478;42.626;23.320;2023-03-01T03:02:23;8.53;;;5.13;;
39788;SDS011;25478;42.626;23.320;2023-03-01T03:05:22;7.50;;;5.07;;
39788;SDS011;25478;42.626;23.320;2023-03-01T03:07:54;6.83;;;4.47;;
39788;SDS011;25478;42.626;23.320;2023-03-01T03:10:28;6.83;;;4.30;;
39788;SDS011;25478;42.626;23.320;2023-03-01T03:12:58;7.43;;;5.20;;
39788;SDS011;25478;42.626;23.320;2023-03-01T03:15:26;7.87;;;4.63;;
39788;SDS011;25478;42.626;23.320;2023-03-01T03:17:54;7.70;;;5.07;;
39788;SDS011;25478;42.626;23.320;2023-03-01T03:20:21;8.90;;;5.30;;
39788;SDS011;25478;42.626;23.320;2023-03-01T03:22:50;7.77;;;5.47;;
39788;SDS011;25478;42.626;23.320;2023-03-01T03:25:19;7.50;;;5.13;;
39788;SDS011;25478;42.626;23.320;2023-03-01T03:27:46;8.27;;;4.53;;
39788;SDS011;25478;42.626;23.320;2023-03-01T03:30:14;7.33;;;4.47;;
39788;SDS011;25478;42.626;23.320;2023-03-01T03:32:43;6.53;;;4.33;;
39788;SDS011;25478;42.626;23.320;2023-03-01T03:35:18;6.40;;;4.47;;
39788;SDS011;25478;42.626;23.320;2023-03-01T03:37:45;6.83;;;4.50;;
39788;SDS011;25478;42.626;23.320;2023-03-01T03:43:05;6.63;;;4.07;;
39788;SDS011;25478;42.626;23.320;2023-03-01T03:48:45;7.83;;;4.87;;
39788;SDS011;25478;42.626;23.320;2023-03-01T03:51:11;7.37;;;5.07;;
39788;SDS011;25478;42.626;23.320;2023-03-01T03:53:38;8.17;;;5.17;;
39788;SDS011;25478;42.626;23.320;2023-03-01T03:56:04;7.17;;;4.80;;
39788;SDS011;25478;42.626;23.320;2023-03-01T03:58:48;8.85;;;5.95;;
39788;SDS011;25478;42.626;23.320;2023-03-01T04:01:14;9.23;;;5.43;;
39788;SDS011;25478;42.626;23.320;2023-03-01T04:03:39;9.83;;;5.40;;
39788;SDS011;25478;42.626;23.320;2023-03-01T04:06:06;8.57;;;4.97;;
39788;SDS011;25478;42.626;23.320;2023-03-01T04:08:32;9.00;;;6.07;;
39788;SDS011;25478;42.626;23.320;2023-03-01T04:10:59;7.43;;;5.30;;
39788;SDS011;25478;42.626;23.320;2023-03-01T04:13:46;7.63;;;4.77;;
39788;SDS011;25478;42.626;23.320;2023-03-01T04:16:11;6.83;;;5.03;;
39788;SDS011;25478;42.626;23.320;2023-03-01T04:18:37;9.70;;;5.47;;
39788;SDS011;25478;42.626;23.320;2023-03-01T04:21:02;8.97;;;5.77;;
39788;SDS011;25478;42.626;23.320;2023-03-01T04:23:28;8.20;;;4.77;;
39788;SDS011;25478;42.626;23.320;2023-03-01T04:25:54;6.33;;;4.67;;
39788;SDS011;25478;42.626;23.320;2023-03-01T04:28:22;10.10;;;5.17;;
39788;SDS011;25478;42.626;23.320;2023-03-01T04:30:50;9.33;;;5.53;;
39788;SDS011;25478;42.626;23.320;2023-03-01T04:33:16;9.87;;;5.20;;
39788;SDS011;25478;42.626;23.320;2023-03-01T04:35:41;10.73;;;5.70;;
39788;SDS011;25478;42.626;23.320;2023-03-01T04:38:07;8.07;;;5.97;;
39788;SDS011;25478;42.626;23.320;2023-03-01T04:40:33;10.07;;;5.07;;
39788;SDS011;25478;42.626;23.320;2023-03-01T04:42:58;7.60;;;5.30;;
39788;SDS011;25478;42.626;23.320;2023-03-01T04:45:24;7.17;;;4.60;;
39788;SDS011;25478;42.626;23.320;2023-03-01T04:47:50;8.30;;;4.60;;
39788;SDS011;25478;42.626;23.320;2023-03-01T04:50:17;8.27;;;4.80;;
39788;SDS011;25478;42.626;23.320;2023-03-01T04:52:45;8.23;;;5.30;;
39788;SDS011;25478;42.626;23.320;2023-03-01T04:55:12;8.83;;;5.07;;
39788;SDS011;25478;42.626;23.320;2023-03-01T04:57:38;9.60;;;5.70;;
39788;SDS011;25478;42.626;23.320;2023-03-01T05:00:04;8.67;;;5.47;;
39788;SDS011;25478;42.626;23.320;2023-03-01T05:05:21;8.33;;;5.30;;
39788;SDS011;25478;42.626;23.320;2023-03-01T05:08:01;8.43;;;5.60;;
39788;SDS011;25478;42.626;23.320;2023-03-01T05:10:29;7.90;;;4.83;;
39788;SDS011;25478;42.626;23.320;2023-03-01T05:12:57;8.00;;;4.77;;
39788;SDS011;25478;42.626;23.320;2023-03-01T05:15:27;9.03;;;4.87;;
39788;SDS011;25478;42.626;23.320;2023-03-01T05:17:56;8.03;;;5.27;;
39788;SDS011;25478;42.626;23.320;2023-03-01T05:20:24;9.20;;;5.37;;
39788;SDS011;25478;42.626;23.320;2023-03-01T05:22:59;6.67;;;4.50;;
39788;SDS011;25478;42.626;23.320;2023-03-01T05:25:25;8.70;;;4.20;;
39788;SDS011;25478;42.626;23.320;2023-03-01T05:27:52;6.03;;;3.43;;
39788;SDS011;25478;42.626;23.320;2023-03-01T05:30:17;5.83;;;3.50;;
39788;SDS011;25478;42.626;23.320;2023-03-01T05:32:44;3.87;;;2.87;;
39788;SDS011;25478;42.626;23.320;2023-03-01T05:35:15;5.33;;;3.20;;
39788;SDS011;25478;42.626;23.320;2023-03-01T05:37:43;4.27;;;2.50;;
39788;SDS011;25478;42.626;23.320;2023-03-01T05:40:11;5.03;;;3.10;;
39788;SDS011;25478;42.626;23.320;2023-03-01T05:43:01;4.87;;;2.87;;
39788;SDS011;25478;42.626;23.320;2023-03-01T05:45:27;3.87;;;2.23;;
39788;SDS011;25478;42.626;23.320;2023-03-01T05:47:53;3.87;;;1.80;;
39788;SDS011;25478;42.626;23.320;2023-03-01T05:50:21;2.60;;;1.70;;
39788;SDS011;25478;42.626;23.320;2023-03-01T05:52:51;2.60;;;1.67;;
39788;SDS011;25478;42.626;23.320;2023-03-01T05:55:21;2.37;;;1.57;;
39788;SDS011;25478;42.626;23.320;2023-03-01T05:57:47;2.33;;;1.50;;
39788;SDS011;25478;42.626;23.320;2023-03-01T06:00:13;2.47;;;1.60;;
39788;SDS011;25478;42.626;23.320;2023-03-01T06:02:40;2.20;;;1.37;;
39788;SDS011;25478;42.626;23.320;2023-03-01T06:05:07;2.23;;;1.30;;
39788;SDS011;25478;42.626;23.320;2023-03-01T06:07:33;3.40;;;1.87;;
39788;SDS011;25478;42.626;23.320;2023-03-01T06:10:00;3.10;;;1.60;;
39788;SDS011;25478;42.626;23.320;2023-03-01T06:12:29;2.07;;;1.60;;
39788;SDS011;25478;42.626;23.320;2023-03-01T06:14:55;4.73;;;1.80;;
39788;SDS011;25478;42.626;23.320;2023-03-01T06:17:21;4.10;;;2.00;;
39788;SDS011;25478;42.626;23.320;2023-03-01T06:19:46;3.10;;;1.73;;
39788;SDS011;25478;42.626;23.320;2023-03-01T06:22:12;3.80;;;2.00;;
39788;SDS011;25478;42.626;23.320;2023-03-01T06:24:38;2.90;;;1.80;;
39788;SDS011;25478;42.626;23.320;2023-03-01T06:27:03;3.63;;;2.00;;
39788;SDS011;25478;42.626;23.320;2023-03-01T06:29:29;3.20;;;1.70;;
39788;SDS011;25478;42.626;23.320;2023-03-01T06:31:54;4.30;;;2.00;;
39788;SDS011;25478;42.626;23.320;2023-03-01T06:34:20;2.87;;;1.90;;
39788;SDS011;25478;42.626;23.320;2023-03-01T06:36:46;3.87;;;2.40;;
39788;SDS011;25478;42.626;23.320;2023-03-01T06:39:12;3.37;;;2.00;;
39788;SDS011;25478;42.626;23.320;2023-03-01T06:41:38;3.60;;;2.27;;
39788;SDS011;25478;42.626;23.320;2023-03-01T06:44:03;3.83;;;2.40;;
39788;SDS011;25478;42.626;23.320;2023-03-01T06:46:29;3.27;;;1.90;;
39788;SDS011;25478;42.626;23.320;2023-03-01T06:48:55;3.20;;;2.23;;
39788;SDS011;25478;42.626;23.320;2023-03-01T06:51:20;3.70;;;2.50;;
39788;SDS011;25478;42.626;23.320;2023-03-01T06:53:46;3.97;;;2.20;;
39788;SDS011;25478;42.626;23.320;2023-03-01T06:56:11;4.17;;;2.20;;
39788;SDS011;25478;42.626;23.320;2023-03-01T06:58:37;4.10;;;3.13;;
39788;SDS011;25478;42.626;23.320;2023-03-01T07:01:09;4.90;;;2.97;;
39788;SDS011;25478;42.626;23.320;2023-03-01T07:03:35;3.73;;;2.63;;
39788;SDS011;25478;42.626;23.320;2023-03-01T07:06:00;4.13;;;2.67;;
39788;SDS011;25478;42.626;23.320;2023-03-01T07:08:26;4.57;;;2.83;;
39788;SDS011;25478;42.626;23.320;2023-03-01T07:10:55;4.13;;;2.77;;
39788;SDS011;25478;42.626;23.320;2023-03-01T07:13:22;4.13;;;2.57;;
39788;SDS011;25478;42.626;23.320;2023-03-01T07:15:47;4.50;;;2.30;;
39788;SDS011;25478;42.626;23.320;2023-03-01T07:18:13;3.77;;;2.57;;
39788;SDS011;25478;42.626;23.320;2023-03-01T07:20:39;3.77;;;2.50;;
39788;SDS011;25478;42.626;23.320;2023-03-01T07:23:05;3.40;;;2.47;;
39788;SDS011;25478;42.626;23.320;2023-03-01T07:25:31;4.30;;;2.17;;
39788;SDS011;25478;42.626;23.320;2023-03-01T07:27:58;3.90;;;2.27;;
39788;SDS011;25478;42.626;23.320;2023-03-01T07:30:23;3.80;;;2.67;;
39788;SDS011;25478;42.626;23.320;2023-03-01T07:32:51;4.20;;;2.20;;
39788;SDS011;25478;42.626;23.320;2023-03-01T07:35:16;2.90;;;2.10;;
39788;SDS011;25478;42.626;23.320;2023-03-01T07:37:43;5.80;;;2.23;;
39788;SDS011;25478;42.626;23.320;2023-03-01T07:40:09;4.03;;;2.50;;
39788;SDS011;25478;42.626;23.320;2023-03-01T07:42:36;3.40;;;2.30;;
39788;SDS011;25478;42.626;23.320;2023-03-01T07:45:02;3.53;;;2.40;;
39788;SDS011;25478;42.626;23.320;2023-03-01T07:47:28;3.37;;;2.10;;
39788;SDS011;25478;42.626;23.320;2023-03-01T07:49:53;3.23;;;2.23;;
39788;SDS011;25478;42.626;23.320;2023-03-01T07:52:19;3.20;;;2.30;;
39788;SDS011;25478;42.626;23.320;2023-03-01T07:54:44;4.20;;;2.40;;
39788;SDS011;25478;42.626;23.320;2023-03-01T07:57:10;5.80;;;2.70;;
39788;SDS011;25478;42.626;23.320;2023-03-01T07:59:35;2.83;;;2.17;;
39788;SDS011;25478;42.626;23.320;2023-03-01T08:02:01;5.20;;;2.37;;
39788;SDS011;25478;42.626;23.320;2023-03-01T08:04:27;4.67;;;2.80;;
39788;SDS011;25478;42.626;23.320;2023-03-01T08:06:52;5.57;;;2.80;;
39788;SDS011;25478;42.626;23.320;2023-03-01T08:09:19;4.20;;;3.13;;
39788;SDS011;25478;42.626;23.320;2023-03-01T08:11:44;3.60;;;2.60;;
39788;SDS011;25478;42.626;23.320;2023-03-01T08:14:10;6.27;;;2.90;;
39788;SDS011;25478;42.626;23.320;2023-03-01T08:16:36;5.50;;;3.23;;
39788;SDS011;25478;42.626;23.320;2023-03-01T08:19:09;4.90;;;3.23;;
39788;SDS011;25478;42.626;23.320;2023-03-01T08:21:35;4.30;;;3.20;;
39788;SDS011;25478;42.626;23.320;2023-03-01T08:24:05;6.13;;;3.17;;
39788;SDS011;25478;42.626;23.320;2023-03-01T08:26:31;4.73;;;3.30;;
39788;SDS011;25478;42.626;23.320;2023-03-01T08:28:57;5.63;;;3.23;;
39788;SDS011;25478;42.626;23.320;2023-03-01T08:31:24;4.40;;;3.10;;
39788;SDS011;25478;42.626;23.320;2023-03-01T08:33:59;4.10;;;2.90;;
39788;SDS011;25478;42.626;23.320;2023-03-01T08:36:27;5.17;;;3.50;;
39788;SDS011;25478;42.626;23.320;2023-03-01T08:38:55;5.43;;;3.73;;
39788;SDS011;25478;42.626;23.320;2023-03-01T08:41:20;7.20;;;3.80;;
39788;SDS011;25478;42.626;23.320;2023-03-01T08:43:46;4.90;;;3.10;;
39788;SDS011;25478;42.626;23.320;2023-03-01T08:46:12;6.33;;;3.33;;
39788;SDS011;25478;42.626;23.320;2023-03-01T08:48:38;5.20;;;3.07;;
39788;SDS011;25478;42.626;23.320;2023-03-01T08:51:11;4.80;;;3.07;;
39788;SDS011;25478;42.626;23.320;2023-03-01T08:53:39;4.75;;;3.05;;
39788;SDS011;25478;42.626;23.320;2023-03-01T08:56:05;5.07;;;3.27;;
39788;SDS011;25478;42.626;23.320;2023-03-01T08:58:30;4.03;;;2.97;;
39788;SDS011;25478;42.626;23.320;2023-03-01T09:00:56;4.50;;;2.87;;
39788;SDS011;25478;42.626;23.320;2023-03-01T09:03:24;3.63;;;2.60;;
39788;SDS011;25478;42.626;23.320;2023-03-01T09:05:50;4.87;;;2.80;;
39788;SDS011;25478;42.626;23.320;2023-03-01T09:08:17;4.67;;;2.73;;
39788;SDS011;25478;42.626;23.320;2023-03-01T09:10:44;5.53;;;3.50;;
39788;SDS011;25478;42.626;23.320;2023-03-01T09:13:09;5.50;;;3.20;;
39788;SDS011;25478;42.626;23.320;2023-03-01T09:15:38;4.83;;;2.80;;
39788;SDS011;25478;42.626;23.320;2023-03-01T09:18:04;4.30;;;2.63;;
39788;SDS011;25478;42.626;23.320;2023-03-01T09:20:30;6.87;;;2.70;;
39788;SDS011;25478;42.626;23.320;2023-03-01T09:22:57;4.20;;;2.70;;
39788;SDS011;25478;42.626;23.320;2023-03-01T09:25:23;3.50;;;2.53;;
39788;SDS011;25478;42.626;23.320;2023-03-01T09:27:52;4.87;;;2.87;;
39788;SDS011;25478;42.626;23.320;2023-03-01T09:30:18;6.43;;;2.70;;
39788;SDS011;25478;42.626;23.320;2023-03-01T09:32:44;7.13;;;3.00;;
39788;SDS011;25478;42.626;23.320;2023-03-01T09:35:10;4.60;;;3.20;;
39788;SDS011;25478;42.626;23.320;2023-03-01T09:37:36;4.13;;;3.00;;
39788;SDS011;25478;42.626;23.320;2023-03-01T09:40:03;4.00;;;2.70;;
39788;SDS011;25478;42.626;23.320;2023-03-01T09:42:32;4.93;;;3.63;;
39788;SDS011;25478;42.626;23.320;2023-03-01T09:45:03;5.13;;;3.33;;
39788;SDS011;25478;42.626;23.320;2023-03-01T09:47:31;4.70;;;2.83;;
39788;SDS011;25478;42.626;23.320;2023-03-01T09:50:20;4.97;;;3.33;;
39788;SDS011;25478;42.626;23.320;2023-03-01T09:55:25;4.90;;;3.00;;
39788;SDS011;25478;42.626;23.320;2023-03-01T10:00:47;5.20;;;3.30;;
39788;SDS011;25478;42.626;23.320;2023-03-01T10:11:26;5.47;;;3.27;;
39788;SDS011;25478;42.626;23.320;2023-03-01T10:14:05;5.53;;;3.10;;
39788;SDS011;25478;42.626;23.320;2023-03-01T10:16:54;5.20;;;3.17;;
39788;SDS011;25478;42.626;23.320;2023-03-01T10:22:22;5.87;;;3.60;;
39788;SDS011;25478;42.626;23.320;2023-03-01T10:24:53;5.97;;;3.77;;
39788;SDS011;25478;42.626;23.320;2023-03-01T10:27:26;5.73;;;3.93;;
39788;SDS011;25478;42.626;23.320;2023-03-01T10:32:37;6.57;;;3.87;;
39788;SDS011;25478;42.626;23.320;2023-03-01T10:35:18;5.73;;;4.03;;
39788;SDS011;25478;42.626;23.320;2023-03-01T10:38:01;6.07;;;3.90;;
39788;SDS011;25478;42.626;23.320;2023-03-01T10:40:27;6.67;;;4.13;;
39788;SDS011;25478;42.626;23.320;2023-03-01T10:42:53;6.70;;;3.80;;
39788;SDS011;25478;42.626;23.320;2023-03-01T10:53:00;7.17;;;4.27;;
39788;SDS011;25478;42.626;23.320;2023-03-01T10:55:34;8.33;;;4.07;;
39788;SDS011;25478;42.626;23.320;2023-03-01T11:00:46;6.43;;;3.83;;
39788;SDS011;25478;42.626;23.320;2023-03-01T11:03:21;6.20;;;4.20;;
39788;SDS011;25478;42.626;23.320;2023-03-01T11:08:28;7.63;;;4.33;;
39788;SDS011;25478;42.626;23.320;2023-03-01T11:13:30;7.10;;;4.27;;
39788;SDS011;25478;42.626;23.320;2023-03-01T11:16:03;7.37;;;4.40;;
39788;SDS011;25478;42.626;23.320;2023-03-01T11:18:32;6.70;;;4.47;;
39788;SDS011;25478;42.626;23.320;2023-03-01T11:20:58;5.97;;;4.13;;
39788;SDS011;25478;42.626;23.320;2023-03-01T11:23:27;7.67;;;4.53;;
39788;SDS011;25478;42.626;23.320;2023-03-01T11:25:55;7.13;;;4.47;;
39788;SDS011;25478;42.626;23.320;2023-03-01T11:28:27;6.87;;;4.40;;
39788;SDS011;25478;42.626;23.320;2023-03-01T11:31:05;8.43;;;5.10;;
39788;SDS011;25478;42.626;23.320;2023-03-01T11:38:56;6.30;;;4.43;;
39788;SDS011;25478;42.626;23.320;2023-03-01T11:41:25;6.43;;;4.47;;
39788;SDS011;25478;42.626;23.320;2023-03-01T11:44:02;7.67;;;4.97;;
39788;SDS011;25478;42.626;23.320;2023-03-01T12:09:10;7.57;;;5.10;;
39788;SDS011;25478;42.626;23.320;2023-03-01T12:14:38;7.80;;;4.17;;
39788;SDS011;25478;42.626;23.320;2023-03-01T12:22:44;7.80;;;5.50;;
39788;SDS011;25478;42.626;23.320;2023-03-01T12:41:45;6.80;;;4.30;;
39788;SDS011;25478;42.626;23.320;2023-03-01T12:49:17;6.70;;;4.30;;
39788;SDS011;25478;42.626;23.320;2023-03-01T12:51:51;7.97;;;4.40;;
39788;SDS011;25478;42.626;23.320;2023-03-01T12:54:33;6.73;;;4.13;;
39788;SDS011;25478;42.626;23.320;2023-03-01T12:57:18;5.87;;;4.33;;
39788;SDS011;25478;42.626;23.320;2023-03-01T13:02:32;6.20;;;4.23;;
39788;SDS011;25478;42.626;23.320;2023-03-01T13:08:18;6.33;;;3.90;;
39788;SDS011;25478;42.626;23.320;2023-03-01T13:10:55;6.40;;;4.20;;
39788;SDS011;25478;42.626;23.320;2023-03-01T13:13:26;7.03;;;4.50;;
39788;SDS011;25478;42.626;23.320;2023-03-01T13:15:53;5.90;;;4.37;;
39788;SDS011;25478;42.626;23.320;2023-03-01T13:20:56;5.35;;;3.78;;
39788;SDS011;25478;42.626;23.320;2023-03-01T13:23:25;7.00;;;4.30;;
39788;SDS011;25478;42.626;23.320;2023-03-01T13:33:46;7.22;;;4.78;;
39788;SDS011;25478;42.626;23.320;2023-03-01T13:46:48;6.82;;;4.63;;
39788;SDS011;25478;42.626;23.320;2023-03-01T13:49:16;7.67;;;4.77;;
39788;SDS011;25478;42.626;23.320;2023-03-01T13:51:48;8.07;;;5.07;;
39788;SDS011;25478;42.626;23.320;2023-03-01T13:54:16;8.13;;;4.73;;
39788;SDS011;25478;42.626;23.320;2023-03-01T13:57:00;6.63;;;4.70;;
39788;SDS011;25478;42.626;23.320;2023-03-01T13:59:27;9.27;;;5.40;;
39788;SDS011;25478;42.626;23.320;2023-03-01T14:01:56;9.03;;;4.80;;
39788;SDS011;25478;42.626;23.320;2023-03-01T14:04:30;7.70;;;4.80;;
39788;SDS011;25478;42.626;23.320;2023-03-01T14:07:16;8.37;;;5.43;;
39788;SDS011;25478;42.626;23.320;2023-03-01T14:09:44;8.97;;;5.10;;
39788;SDS011;25478;42.626;23.320;2023-03-01T14:15:19;7.37;;;4.90;;
39788;SDS011;25478;42.626;23.320;2023-03-01T14:20:23;8.60;;;5.53;;
39788;SDS011;25478;42.626;23.320;2023-03-01T14:22:57;7.87;;;5.07;;
39788;SDS011;25478;42.626;23.320;2023-03-01T14:25:29;7.83;;;4.57;;
39788;SDS011;25478;42.626;23.320;2023-03-01T14:27:59;8.23;;;4.80;;
39788;SDS011;25478;42.626;23.320;2023-03-01T14:30:31;10.27;;;5.40;;
39788;SDS011;25478;42.626;23.320;2023-03-01T14:33:01;9.87;;;5.17;;
39788;SDS011;25478;42.626;23.320;2023-03-01T14:35:30;8.13;;;5.07;;
39788;SDS011;25478;42.626;23.320;2023-03-01T14:37:57;6.87;;;4.43;;
39788;SDS011;25478;42.626;23.320;2023-03-01T14:40:30;7.43;;;4.60;;
39788;SDS011;25478;42.626;23.320;2023-03-01T14:42:59;9.83;;;5.13;;
39788;SDS011;25478;42.626;23.320;2023-03-01T14:45:27;10.83;;;5.30;;
39788;SDS011;25478;42.626;23.320;2023-03-01T14:47:54;8.60;;;4.83;;
39788;SDS011;25478;42.626;23.320;2023-03-01T14:50:25;20.80;;;7.33;;
39788;SDS011;25478;42.626;23.320;2023-03-01T14:53:04;15.93;;;6.50;;
39788;SDS011;25478;42.626;23.320;2023-03-01T14:55:33;12.10;;;5.33;;
39788;SDS011;25478;42.626;23.320;2023-03-01T14:58:05;7.90;;;4.73;;
39788;SDS011;25478;42.626;23.320;2023-03-01T15:00:35;8.73;;;5.18;;
39788;SDS011;25478;42.626;23.320;2023-03-01T15:03:05;8.07;;;4.90;;
39788;SDS011;25478;42.626;23.320;2023-03-01T15:05:38;9.30;;;4.77;;
39788;SDS011;25478;42.626;23.320;2023-03-01T15:08:05;8.23;;;5.30;;
39788;SDS011;25478;42.626;23.320;2023-03-01T15:10:35;9.77;;;5.97;;
39788;SDS011;25478;42.626;23.320;2023-03-01T15:13:11;10.27;;;5.67;;
39788;SDS011;25478;42.626;23.320;2023-03-01T15:15:40;11.23;;;5.67;;
39788;SDS011;25478;42.626;23.320;2023-03-01T15:18:18;8.97;;;5.80;;
39788;SDS011;25478;42.626;23.320;2023-03-01T15:20:46;13.00;;;6.13;;
39788;SDS011;25478;42.626;23.320;2023-03-01T15:23:30;10.77;;;6.20;;
39788;SDS011;25478;42.626;23.320;2023-03-01T15:26:58;11.03;;;6.13;;
39788;SDS011;25478;42.626;23.320;2023-03-01T15:29:32;9.07;;;5.50;;
39788;SDS011;25478;42.626;23.320;2023-03-01T15:38:27;9.67;;;5.83;;
39788;SDS011;25478;42.626;23.320;2023-03-01T15:40:55;12.00;;;6.30;;
39788;SDS011;25478;42.626;23.320;2023-03-01T15:46:03;9.50;;;5.93;;
39788;SDS011;25478;42.626;23.320;2023-03-01T15:48:29;11.10;;;6.33;;
39788;SDS011;25478;42.626;23.320;2023-03-01T15:50:58;9.43;;;6.00;;
39788;SDS011;25478;42.626;23.320;2023-03-01T15:53:26;10.90;;;5.80;;
39788;SDS011;25478;42.626;23.320;2023-03-01T15:55:53;10.07;;;5.40;;
39788;SDS011;25478;42.626;23.320;2023-03-01T15:58:22;11.87;;;6.83;;
39788;SDS011;25478;42.626;23.320;2023-03-01T16:00:50;12.43;;;6.90;;
39788;SDS011;25478;42.626;23.320;2023-03-01T16:03:21;10.23;;;5.80;;
39788;SDS011;25478;42.626;23.320;2023-03-01T16:05:48;10.00;;;5.83;;
39788;SDS011;25478;42.626;23.320;2023-03-01T16:08:15;11.23;;;6.20;;
39788;SDS011;25478;42.626;23.320;2023-03-01T16:10:41;9.87;;;5.87;;
39788;SDS011;25478;42.626;23.320;2023-03-01T16:13:13;11.63;;;6.47;;
39788;SDS011;25478;42.626;23.320;2023-03-01T16:15:38;10.83;;;6.00;;
39788;SDS011;25478;42.626;23.320;2023-03-01T16:18:04;10.60;;;6.20;;
39788;SDS011;25478;42.626;23.320;2023-03-01T16:20:31;9.23;;;5.70;;
39788;SDS011;25478;42.626;23.320;2023-03-01T16:22:58;11.17;;;5.73;;
39788;SDS011;25478;42.626;23.320;2023-03-01T16:25:25;11.23;;;6.10;;
39788;SDS011;25478;42.626;23.320;2023-03-01T16:27:51;10.37;;;6.20;;
39788;SDS011;25478;42.626;23.320;2023-03-01T16:30:17;10.90;;;6.30;;
39788;SDS011;25478;42.626;23.320;2023-03-01T16:32:45;9.77;;;6.23;;
39788;SDS011;25478;42.626;23.320;2023-03-01T16:35:14;10.60;;;6.37;;
39788;SDS011;25478;42.626;23.320;2023-03-01T16:37:41;11.53;;;5.97;;
39788;SDS011;25478;42.626;23.320;2023-03-01T16:40:16;9.93;;;5.97;;
39788;SDS011;25478;42.626;23.320;2023-03-01T16:42:44;11.40;;;6.07;;
39788;SDS011;25478;42.626;23.320;2023-03-01T16:45:09;11.23;;;5.60;;
39788;SDS011;25478;42.626;23.320;2023-03-01T16:47:36;8.80;;;4.77;;
39788;SDS011;25478;42.626;23.320;2023-03-01T16:50:01;9.27;;;5.30;;
39788;SDS011;25478;42.626;23.320;2023-03-01T16:52:27;10.70;;;5.30;;
39788;SDS011;25478;42.626;23.320;2023-03-01T16:54:52;9.87;;;5.30;;
39788;SDS011;25478;42.626;23.320;2023-03-01T16:57:18;8.73;;;4.87;;
39788;SDS011;25478;42.626;23.320;2023-03-01T16:59:44;9.00;;;5.93;;
39788;SDS011;25478;42.626;23.320;2023-03-01T17:02:10;10.93;;;5.70;;
39788;SDS011;25478;42.626;23.320;2023-03-01T17:04:40;9.43;;;5.20;;
39788;SDS011;25478;42.626;23.320;2023-03-01T17:07:05;10.53;;;5.80;;
39788;SDS011;25478;42.626;23.320;2023-03-01T17:09:35;9.40;;;5.00;;
39788;SDS011;25478;42.626;23.320;2023-03-01T17:12:02;9.50;;;5.47;;
39788;SDS011;25478;42.626;23.320;2023-03-01T17:14:30;9.60;;;5.03;;